createdAt,value
2023-04-18T00:09:24.013Z,8.39
2023-04-18T00:19:31.391Z,8.39
2023-04-18T00:29:38.632Z,8.39
2023-04-18T00:49:52.710Z,8.34
2023-04-18T01:00:00.738Z,8.32
2023-04-18T01:10:07.197Z,8.29
2023-04-18T01:20:16.988Z,8.28
2023-04-18T01:30:24.328Z,8.27
2023-04-18T01:40:31.600Z,8.23
2023-04-18T01:50:38.610Z,8.21
2023-04-18T02:00:46.097Z,8.20
2023-04-18T02:10:53.188Z,8.16
2023-04-18T02:21:00.322Z,8.12
2023-04-18T02:31:07.556Z,8.08
2023-04-18T02:41:14.265Z,8.04
2023-04-18T02:51:21.290Z,7.99
2023-04-18T03:01:28.496Z,7.94
2023-04-18T03:11:35.762Z,7.92
2023-04-18T03:21:42.866Z,7.93
2023-04-18T03:31:50.001Z,7.93
2023-04-18T03:41:57.288Z,7.93
2023-04-18T03:52:04.319Z,7.93
2023-04-18T04:02:11.322Z,7.94
2023-04-18T04:12:18.654Z,7.94
2023-04-18T04:22:25.983Z,7.95
2023-04-18T04:32:33.110Z,7.95
2023-04-18T04:42:39.537Z,7.93
2023-04-18T04:52:46.523Z,7.92
2023-04-18T05:02:53.808Z,7.93
2023-04-18T05:13:00.042Z,7.94
2023-04-18T05:23:06.989Z,7.96
2023-04-18T05:33:14.026Z,8.02
2023-04-18T05:43:19.426Z,8.11
2023-04-18T05:53:26.615Z,8.24
2023-04-18T06:03:34.054Z,8.41
2023-04-18T06:13:41.591Z,8.58
2023-04-18T06:33:52.573Z,9.18
2023-04-18T06:44:03.998Z,9.60
2023-04-18T06:54:12.135Z,9.86
2023-04-18T07:04:19.926Z,10.03
2023-04-18T07:14:28.681Z,10.09
2023-04-18T07:24:35.991Z,10.23
2023-04-18T07:34:43.908Z,10.52
2023-04-18T07:44:51.167Z,10.82
2023-04-18T07:54:58.569Z,11.07
2023-04-18T08:05:06.188Z,11.11
2023-04-18T08:15:15.104Z,11.05
2023-04-18T08:25:22.295Z,11.21
2023-04-18T08:35:29.634Z,11.38
2023-04-18T08:45:36.347Z,11.31
2023-04-18T08:55:45.377Z,11.39
2023-04-18T09:17:34.320Z,12.02
2023-04-18T09:27:41.896Z,11.93
2023-04-18T09:37:52.560Z,12.25
2023-04-18T09:48:00.317Z,12.30
2023-04-18T09:58:08.915Z,12.39
2023-04-18T10:08:17.426Z,12.98
2023-04-18T10:18:24.575Z,13.45
2023-04-18T10:28:51.252Z,13.37
2023-04-18T10:39:01.205Z,13.46
2023-04-18T10:49:24.477Z,14.00
2023-04-18T10:59:35.286Z,13.98
2023-04-18T11:09:44.515Z,14.10
2023-04-18T11:20:01.397Z,14.09
2023-04-18T11:30:10.470Z,14.22
2023-04-18T11:40:20.241Z,14.07
2023-04-18T11:50:28.413Z,13.97
2023-04-18T12:00:37.360Z,14.33
2023-04-18T12:10:46.572Z,14.46
2023-04-18T12:20:54.415Z,14.59
2023-04-18T12:31:02.467Z,14.74
2023-04-18T12:41:09.872Z,14.68
2023-04-18T12:51:16.961Z,14.69
2023-04-18T13:01:24.058Z,14.69
2023-04-18T13:11:31.790Z,14.50
2023-04-18T13:21:39.028Z,14.70
2023-04-18T13:31:46.519Z,14.75
2023-04-18T13:41:54.282Z,14.91
2023-04-18T13:52:02.034Z,15.16
2023-04-18T14:02:11.876Z,15.07
2023-04-18T14:12:54.429Z,15.27
2023-04-18T14:23:02.096Z,14.71
2023-04-18T14:33:10.484Z,14.26
2023-04-18T14:43:17.633Z,14.01
2023-04-18T14:53:25.176Z,13.66
2023-04-18T15:03:32.433Z,13.53
2023-04-18T15:13:40.159Z,13.55
2023-04-18T15:23:47.402Z,13.66
2023-04-18T15:33:56.168Z,13.70
2023-04-18T15:44:03.939Z,13.40
2023-04-18T15:54:11.661Z,13.13
2023-04-18T16:04:18.347Z,12.77
2023-04-18T16:14:26.225Z,11.89
2023-04-18T16:24:33.222Z,11.24
2023-04-18T16:34:40.264Z,11.25
2023-04-18T16:54:54.438Z,11.39
2023-04-18T17:05:01.760Z,11.49
2023-04-18T17:15:10.202Z,11.64
2023-04-18T17:25:17.327Z,11.73
2023-04-18T17:35:24.681Z,11.69
2023-04-18T17:45:31.798Z,11.60
2023-04-18T17:55:37.963Z,11.52
2023-04-18T18:05:48.532Z,11.49
2023-04-18T18:15:55.759Z,11.45
2023-04-18T18:26:04.254Z,11.35
2023-04-18T18:36:11.592Z,11.31
2023-04-18T18:46:19.235Z,11.32
2023-04-18T18:56:26.748Z,11.35
2023-04-18T19:06:34.076Z,11.30
2023-04-18T19:16:41.765Z,11.19
2023-04-18T19:26:49.464Z,11.10
2023-04-18T19:36:56.746Z,11.09
2023-04-18T19:47:04.299Z,11.11
2023-04-18T19:57:12.327Z,11.10
2023-04-18T20:07:19.795Z,10.97
2023-04-18T20:17:26.048Z,10.90
2023-04-18T20:27:33.804Z,10.87
2023-04-18T20:37:41.561Z,10.89
2023-04-18T20:47:48.798Z,10.89
2023-04-18T20:57:56.151Z,10.84
2023-04-18T21:08:03.463Z,10.69
2023-04-18T21:18:11.191Z,10.54
2023-04-18T21:28:18.944Z,10.52
2023-04-18T21:38:25.498Z,10.56
2023-04-18T21:48:32.424Z,10.54
2023-04-18T21:58:39.530Z,10.42
2023-04-18T22:08:47.223Z,10.25
2023-04-18T22:18:54.487Z,10.16
2023-04-18T22:29:01.871Z,10.11
2023-04-18T22:39:09.054Z,10.08
2023-04-18T22:49:18.095Z,10.05
2023-04-18T22:59:25.108Z,10.06
2023-04-18T23:09:34.396Z,9.97
2023-04-18T23:19:40.191Z,9.81
2023-04-18T23:29:50.355Z,9.65
2023-04-18T23:39:57.377Z,9.59
2023-04-18T23:50:04.753Z,9.60
